Time;durP1;ratioP1;P1;durP2;ratioP2;P2;SDS_P1;SDS_P2;PMS_P1;PMS_P2;Temp;Humidity;BMP_temperature;BMP_pressure;BME280_temperature;BME280_humidity;BME280_pressure;Samples;Min_cycle;Max_cycle;Signal;HPM_P1;HPM_P2
2022/09/16 00:01:42;;;;;;;6.32;2.85;;;18.40;99.90;;;;;;4162603;28;20432;-63
2022/09/16 00:03:43;;;;;;;3.88;2.38;;;18.30;99.90;;;;;;4163142;28;20512;-63
2022/09/16 00:05:48;;;;;;;4.05;2.40;;;18.30;99.90;;;;;;4162928;28;20030;-62
2022/09/16 00:07:49;;;;;;;5.85;2.53;;;18.30;99.90;;;;;;4162239;28;20021;-63
2022/09/16 00:09:50;;;;;;;8.10;2.67;;;18.30;99.90;;;;;;4163263;28;20470;-62
2022/09/16 00:11:51;;;;;;;5.28;2.40;;;18.30;99.90;;;;;;4162201;28;20029;-62
2022/09/16 00:13:52;;;;;;;7.55;3.10;;;18.30;99.90;;;;;;4163019;28;20045;-62
2022/09/16 00:15:54;;;;;;;5.60;2.50;;;18.30;99.90;;;;;;4161923;28;20034;-61
2022/09/16 00:17:55;;;;;;;5.55;2.70;;;18.30;99.90;;;;;;4163127;28;20087;-61
2022/09/16 00:19:57;;;;;;;6.32;2.80;;;18.30;99.90;;;;;;4160316;28;20091;-61
2022/09/16 00:21:58;;;;;;;3.53;2.90;;;18.30;99.90;;;;;;4146694;28;20034;-62
2022/09/16 00:23:59;;;;;;;9.88;3.13;;;18.30;99.90;;;;;;4145668;28;20624;-62
2022/09/16 00:26:00;;;;;;;3.40;2.90;;;18.30;99.90;;;;;;4146638;28;20037;-62
2022/09/16 00:28:02;;;;;;;5.90;2.80;;;18.20;99.90;;;;;;4145597;28;20064;-62
2022/09/16 00:30:04;;;;;;;6.65;3.33;;;18.20;99.90;;;;;;4145923;28;20483;-62
2022/09/16 00:32:05;;;;;;;8.00;3.25;;;18.20;99.90;;;;;;4144120;28;20490;-62
2022/09/16 00:34:06;;;;;;;4.57;2.67;;;18.20;99.90;;;;;;4146452;28;20030;-62
2022/09/16 00:36:13;;;;;;;7.80;2.80;;;18.20;99.90;;;;;;4146953;28;20433;-62
2022/09/16 00:38:15;;;;;;;4.82;2.08;;;18.20;99.90;;;;;;4145623;28;20437;-61
2022/09/16 00:40:16;;;;;;;5.35;2.20;;;18.30;99.90;;;;;;4146298;28;20075;-61
2022/09/16 00:42:18;;;;;;;2.65;1.50;;;18.30;99.90;;;;;;4144850;28;20092;-62
2022/09/16 00:45:04;;;;;;;9.38;3.28;;;18.40;99.90;;;;;;4146271;28;20037;-62
2022/09/16 00:47:05;;;;;;;4.78;2.85;;;18.50;99.90;;;;;;4144627;28;20054;-62
2022/09/16 00:49:13;;;;;;;4.22;1.90;;;18.50;99.90;;;;;;4145655;28;20026;-62
2022/09/16 00:51:16;;;;;;;4.20;1.73;;;18.60;99.90;;;;;;4144028;28;20034;-63
2022/09/16 00:53:22;;;;;;;2.58;1.83;;;18.70;99.90;;;;;;4145485;28;20053;-62
2022/09/16 00:55:29;;;;;;;5.93;1.92;;;18.70;99.90;;;;;;4157116;28;20112;-62
2022/09/16 00:57:30;;;;;;;9.05;2.50;;;18.70;99.90;;;;;;4160596;28;20029;-62
2022/09/16 00:59:45;;;;;;;5.05;2.70;;;18.80;99.90;;;;;;4161204;28;20054;-62
2022/09/16 01:01:47;;;;;;;8.30;3.45;;;18.80;99.90;;;;;;4162093;28;20099;-63
2022/09/16 01:03:52;;;;;;;10.65;3.17;;;18.80;99.90;;;;;;4161618;28;20059;-62
2022/09/16 01:05:54;;;;;;;6.70;2.72;;;18.80;99.90;;;;;;4161821;28;20033;-62
2022/09/16 01:07:55;;;;;;;6.82;2.70;;;18.70;99.90;;;;;;4161225;28;20071;-62
2022/09/16 01:09:56;;;;;;;5.65;3.00;;;18.70;99.90;;;;;;4161303;28;20041;-62
2022/09/16 01:11:58;;;;;;;3.97;1.70;;;18.70;99.90;;;;;;4161231;28;20025;-62
2022/09/16 01:14:52;;;;;;;4.60;2.15;;;18.60;99.90;;;;;;4160716;28;20047;-63
2022/09/16 01:16:24;;;;;;;4.30;1.73;;;18.60;99.90;;;;;;4144564;28;20030;-63
2022/09/16 01:19:01;;;;;;;3.08;1.25;;;18.60;99.90;;;;;;4145892;28;20377;-62
2022/09/16 01:21:09;;;;;;;1.40;0.65;;;18.60;99.90;;;;;;4111384;28;20050;-62
2022/09/16 01:23:21;;;;;;;4.32;1.27;;;18.50;99.90;;;;;;4131950;28;20045;-62
2022/09/16 01:26:06;;;;;;;3.33;1.88;;;18.60;99.90;;;;;;4144600;28;20084;-63
2022/09/16 01:28:17;;;;;;;4.35;2.38;;;18.50;99.90;;;;;;4145167;28;20041;-63
2022/09/16 01:30:34;;;;;;;8.80;4.95;;;18.50;99.90;;;;;;4145004;28;20025;-62
2022/09/16 01:33:13;;;;;;;12.15;5.18;;;18.60;99.90;;;;;;4144939;28;20034;-62
2022/09/16 01:35:31;;;;;;;9.32;3.08;;;18.60;99.90;;;;;;4111495;28;20047;-63
2022/09/16 01:37:40;;;;;;;6.38;4.32;;;18.50;99.90;;;;;;4144112;28;20072;-62
2022/09/16 01:39:49;;;;;;;6.07;2.75;;;18.50;99.90;;;;;;4145391;28;20049;-62
2022/09/16 01:42:06;;;;;;;7.55;3.65;;;18.50;99.90;;;;;;4144503;28;20045;-61
2022/09/16 01:44:31;;;;;;;4.72;2.65;;;18.50;99.90;;;;;;4145706;28;20042;-62
2022/09/16 01:46:47;;;;;;;5.32;2.60;;;18.40;99.90;;;;;;4145430;28;20022;-63
2022/09/16 01:48:58;;;;;;;6.95;2.47;;;18.30;99.90;;;;;;4145600;28;20084;-62
2022/09/16 01:51:08;;;;;;;8.48;3.05;;;18.30;99.90;;;;;;4144503;28;20081;-62
2022/09/16 01:53:34;;;;;;;5.53;2.67;;;18.30;99.90;;;;;;4145487;28;20473;-62
2022/09/16 01:55:45;;;;;;;5.93;2.80;;;18.30;99.90;;;;;;4159092;28;20092;-62
2022/09/16 01:58:05;;;;;;;6.20;2.78;;;18.30;99.90;;;;;;4158537;28;20030;-63
2022/09/16 02:00:09;;;;;;;4.87;2.57;;;18.30;99.90;;;;;;4157030;28;20041;-62
2022/09/16 02:02:44;;;;;;;11.10;3.20;;;18.30;99.90;;;;;;4161607;28;20371;-62
2022/09/16 02:04:53;;;;;;;5.78;2.40;;;18.30;99.90;;;;;;4161404;28;20045;-62
2022/09/16 02:06:57;;;;;;;5.00;2.42;;;18.30;99.90;;;;;;4161173;28;20029;-62
2022/09/16 02:09:02;;;;;;;6.50;3.13;;;18.30;99.90;;;;;;4151619;28;20029;-63
2022/09/16 02:11:07;;;;;;;4.95;2.58;;;18.30;99.90;;;;;;4145195;28;20026;-62
2022/09/16 02:13:18;;;;;;;2.97;2.60;;;18.30;99.90;;;;;;4143604;28;20088;-63
2022/09/16 02:15:22;;;;;;;7.53;3.00;;;18.30;99.90;;;;;;4144466;28;20046;-63
2022/09/16 02:17:28;;;;;;;9.13;2.72;;;18.30;99.90;;;;;;4144197;28;20072;-63
2022/09/16 02:20:04;;;;;;;3.42;2.35;;;18.20;99.90;;;;;;4145290;28;20049;-63
2022/09/16 02:22:10;;;;;;;4.97;1.88;;;18.30;99.90;;;;;;4136912;28;20553;-62
2022/09/16 02:24:15;;;;;;;7.00;2.60;;;18.30;99.90;;;;;;4143703;28;20037;-63
2022/09/16 02:26:22;;;;;;;4.07;1.80;;;18.30;99.90;;;;;;4144464;28;20073;-63
2022/09/16 02:28:32;;;;;;;3.60;1.45;;;18.40;99.90;;;;;;4144823;28;20363;-63
2022/09/16 02:30:36;;;;;;;6.43;1.90;;;18.40;99.90;;;;;;4144249;28;20422;-63
2022/09/16 02:32:42;;;;;;;2.38;1.75;;;18.40;99.90;;;;;;4143496;28;20080;-63
2022/09/16 02:34:46;;;;;;;3.75;2.38;;;18.50;99.90;;;;;;4143798;28;20417;-63
2022/09/16 02:36:52;;;;;;;3.97;2.70;;;18.50;99.90;;;;;;4144697;28;20100;-63
2022/09/16 02:39:00;;;;;;;5.68;2.63;;;18.40;99.90;;;;;;4144229;28;20366;-62
2022/09/16 02:41:02;;;;;;;6.47;1.80;;;18.40;99.90;;;;;;4145083;28;20080;-63
2022/09/16 02:43:03;;;;;;;3.95;1.90;;;18.30;99.90;;;;;;4143267;28;20088;-62
2022/09/16 02:45:06;;;;;;;3.92;1.45;;;18.20;99.90;;;;;;4145105;28;20107;-63
2022/09/16 02:47:24;;;;;;;3.83;0.90;;;18.20;99.90;;;;;;4144677;28;20030;-62
2022/09/16 02:49:34;;;;;;;3.72;1.20;;;18.20;99.90;;;;;;4144642;28;20101;-62
2022/09/16 02:51:54;;;;;;;2.90;1.10;;;18.20;99.90;;;;;;4147019;28;20026;-63
2022/09/16 02:54:17;;;;;;;2.40;0.70;;;18.20;99.90;;;;;;4147427;28;20042;-62
2022/09/16 02:56:34;;;;;;;2.75;1.00;;;18.20;99.90;;;;;;4162200;28;20091;-62
2022/09/16 02:58:35;;;;;;;5.45;1.80;;;18.20;99.90;;;;;;4163929;28;20034;-62
2022/09/16 03:00:45;;;;;;;3.88;1.30;;;18.20;99.90;;;;;;4161201;28;20127;-62
2022/09/16 03:02:47;;;;;;;6.05;0.90;;;18.20;99.90;;;;;;4159900;28;20103;-61
2022/09/16 03:04:48;;;;;;;2.33;1.23;;;18.20;99.90;;;;;;4147151;28;20555;-63
2022/09/16 03:06:50;;;;;;;1.15;0.98;;;18.20;99.90;;;;;;4147898;28;20429;-63
2022/09/16 03:08:54;;;;;;;4.00;1.00;;;18.20;99.90;;;;;;4146416;28;20046;-63
2022/09/16 03:11:01;;;;;;;3.67;0.70;;;18.20;99.90;;;;;;4156575;28;20018;-63
2022/09/16 03:13:21;;;;;;;3.20;0.90;;;18.20;99.90;;;;;;4162948;28;20499;-63
2022/09/16 03:15:31;;;;;;;1.30;0.95;;;18.20;99.90;;;;;;4164065;28;20030;-64
2022/09/16 03:18:00;;;;;;;2.90;1.02;;;18.20;99.90;;;;;;4162954;28;20095;-63
2022/09/16 03:20:36;;;;;;;0.77;0.68;;;18.30;99.90;;;;;;4163811;28;20473;-64
2022/09/16 03:23:22;;;;;;;4.53;0.98;;;18.20;99.90;;;;;;4161408;28;20563;-63
2022/09/16 03:25:42;;;;;;;1.38;0.63;;;18.30;99.90;;;;;;4157062;28;20045;-63
2022/09/16 03:28:09;;;;;;;0.80;0.65;;;18.30;99.90;;;;;;4163994;28;20026;-63
2022/09/16 03:30:11;;;;;;;5.65;0.80;;;18.20;99.90;;;;;;4159975;28;20038;-64
2022/09/16 03:32:23;;;;;;;4.97;1.02;;;18.20;99.90;;;;;;4163718;28;20072;-63
2022/09/16 03:34:43;;;;;;;2.35;0.90;;;18.20;99.90;;;;;;4162963;28;20088;-64
2022/09/16 03:36:49;;;;;;;0.65;0.60;;;18.20;99.90;;;;;;4163715;28;20071;-64
2022/09/16 03:38:52;;;;;;;1.40;1.00;;;18.20;99.90;;;;;;4162325;28;20119;-63
2022/09/16 03:40:53;;;;;;;1.23;0.80;;;18.20;99.90;;;;;;4158143;28;20478;-64
2022/09/16 03:42:56;;;;;;;3.70;0.70;;;18.20;99.90;;;;;;4146115;28;20042;-63
2022/09/16 03:44:58;;;;;;;2.13;0.80;;;18.20;99.90;;;;;;4147095;28;20092;-64
2022/09/16 03:46:59;;;;;;;1.77;0.55;;;18.20;99.90;;;;;;4158028;28;20037;-64
2022/09/16 03:49:00;;;;;;;1.17;0.80;;;18.20;99.90;;;;;;4163338;28;20923;-63
2022/09/16 03:51:02;;;;;;;1.77;0.85;;;18.20;99.90;;;;;;4162412;28;20034;-63
2022/09/16 03:53:03;;;;;;;1.88;0.80;;;18.20;99.90;;;;;;4162917;28;20083;-63
2022/09/16 03:55:06;;;;;;;1.38;0.77;;;18.10;99.90;;;;;;4162794;28;20069;-64
2022/09/16 03:57:08;;;;;;;2.30;0.80;;;18.10;99.90;;;;;;4162256;28;20095;-63
2022/09/16 03:59:09;;;;;;;2.22;1.00;;;18.10;99.90;;;;;;4162806;28;20590;-63
2022/09/16 04:01:11;;;;;;;1.75;1.38;;;18.10;99.90;;;;;;4161503;28;20096;-64
2022/09/16 04:03:12;;;;;;;7.70;1.60;;;18.10;99.90;;;;;;4161324;28;20049;-62
2022/09/16 04:05:13;;;;;;;2.63;1.25;;;18.00;99.90;;;;;;4152762;28;20473;-64
2022/09/16 04:07:14;;;;;;;4.85;1.13;;;18.00;99.90;;;;;;4147118;28;20092;-63
2022/09/16 04:09:15;;;;;;;3.00;1.10;;;18.00;99.90;;;;;;4145055;28;20513;-63
2022/09/16 04:11:16;;;;;;;3.30;0.95;;;18.00;99.90;;;;;;4146211;28;20084;-63
2022/09/16 04:13:18;;;;;;;1.50;0.68;;;18.00;99.90;;;;;;4155555;28;20041;-67
2022/09/16 04:15:19;;;;;;;11.23;4.00;;;18.00;99.90;;;;;;4175719;28;20416;-63
2022/09/16 04:17:20;;;;;;;39.17;13.10;;;17.90;99.90;;;;;;4166420;28;20092;-63
2022/09/16 04:19:21;;;;;;;1.90;1.38;;;17.90;99.90;;;;;;4162314;28;20026;-63
2022/09/16 04:21:22;;;;;;;12.38;4.72;;;17.90;99.90;;;;;;4161503;28;20075;-64
2022/09/16 04:23:25;;;;;;;2.95;1.00;;;18.00;99.90;;;;;;4162034;28;20037;-65
2022/09/16 04:25:26;;;;;;;4.70;1.88;;;18.00;99.90;;;;;;4156815;28;20025;-63
2022/09/16 04:27:27;;;;;;;2.60;1.00;;;18.30;99.90;;;;;;4152547;28;20030;-64
2022/09/16 04:29:28;;;;;;;1.52;1.20;;;18.60;99.90;;;;;;4160801;28;20026;-63
2022/09/16 04:31:30;;;;;;;1.55;1.38;;;18.90;99.90;;;;;;4164222;28;20100;-64
2022/09/16 04:33:33;;;;;;;1.52;0.82;;;19.30;99.90;;;;;;4179062;28;20029;-64
2022/09/16 04:35:34;;;;;;;1.42;1.25;;;19.50;99.90;;;;;;4172792;28;20025;-64
2022/09/16 04:37:35;;;;;;;0.90;0.90;;;19.80;99.90;;;;;;4162386;28;20087;-64
2022/09/16 04:39:36;;;;;;;1.27;1.10;;;20.20;99.90;;;;;;4161416;28;20095;-64
2022/09/16 04:41:38;;;;;;;2.13;1.05;;;20.50;99.90;;;;;;4162325;28;20033;-65
2022/09/16 04:43:39;;;;;;;3.47;1.73;;;20.60;99.90;;;;;;4161144;28;20509;-65
2022/09/16 04:45:40;;;;;;;1.90;1.60;;;21.10;99.90;;;;;;4161430;28;20099;-65
2022/09/16 04:47:41;;;;;;;3.63;1.80;;;21.60;99.90;;;;;;4161062;28;20029;-65
2022/09/16 04:49:43;;;;;;;3.20;1.15;;;22.10;99.90;;;;;;4162124;28;20079;-65
2022/09/16 04:51:44;;;;;;;3.03;0.90;;;22.60;99.90;;;;;;4160591;28;20029;-65
2022/09/16 04:53:46;;;;;;;1.95;0.65;;;23.00;99.90;;;;;;4161617;28;20099;-64
2022/09/16 04:55:47;;;;;;;1.45;0.70;;;23.50;99.90;;;;;;4160933;28;20748;-66
2022/09/16 04:57:49;;;;;;;1.42;1.08;;;23.80;99.90;;;;;;4161579;28;20072;-64
2022/09/16 04:59:50;;;;;;;1.58;0.70;;;24.20;99.90;;;;;;4159846;28;20041;-64
2022/09/16 05:01:51;;;;;;;2.45;0.70;;;24.60;99.90;;;;;;4145358;28;20932;-64
2022/09/16 05:03:55;;;;;;;2.08;1.02;;;25.20;99.90;;;;;;4151773;28;20084;-63
2022/09/16 05:06:04;;;;;;;0.85;0.63;;;25.60;99.90;;;;;;4148034;28;20037;-63
2022/09/16 05:08:06;;;;;;;1.30;0.82;;;25.90;99.90;;;;;;4154822;28;20084;-64
2022/09/16 05:10:07;;;;;;;1.75;0.80;;;26.10;99.90;;;;;;4149655;28;21258;-68
2022/09/16 05:12:09;;;;;;;1.02;0.70;;;26.30;99.90;;;;;;4153616;28;20715;-67
2022/09/16 05:14:14;;;;;;;1.13;0.50;;;26.30;99.90;;;;;;4149435;28;20464;-67
2022/09/16 05:16:18;;;;;;;1.20;0.77;;;26.50;99.90;;;;;;4155754;28;20034;-67
2022/09/16 05:18:19;;;;;;;1.35;0.65;;;26.20;99.90;;;;;;4152830;28;20041;-69
2022/09/16 05:20:20;;;;;;;3.53;1.02;;;26.00;99.90;;;;;;4152784;28;20053;-67
2022/09/16 05:22:22;;;;;;;1.05;0.85;;;26.20;99.90;;;;;;4153807;28;20123;-68
2022/09/16 05:24:23;;;;;;;1.05;0.57;;;26.40;99.90;;;;;;4146758;28;20806;-65
2022/09/16 05:26:27;;;;;;;4.38;1.00;;;26.80;99.90;;;;;;4144597;28;20030;-67
2022/09/16 05:28:28;;;;;;;2.25;1.08;;;27.20;99.90;;;;;;4143058;28;20086;-66
2022/09/16 05:30:29;;;;;;;0.75;0.75;;;27.70;99.90;;;;;;4152538;28;20103;-65
2022/09/16 05:32:30;;;;;;;1.80;0.82;;;28.30;99.90;;;;;;4153293;28;20029;-65
2022/09/16 05:34:31;;;;;;;1.90;1.10;;;28.50;99.90;;;;;;4153646;28;20041;-65
2022/09/16 05:36:35;;;;;;;1.92;0.80;;;28.80;99.90;;;;;;4152789;28;20103;-65
2022/09/16 05:38:36;;;;;;;1.77;0.88;;;29.00;99.70;;;;;;4153151;28;20049;-64
2022/09/16 05:40:38;;;;;;;2.88;0.68;;;29.10;99.10;;;;;;4145658;28;20049;-65
2022/09/16 05:42:39;;;;;;;0.50;0.50;;;29.10;99.00;;;;;;4148805;28;20061;-64
2022/09/16 05:44:40;;;;;;;1.00;0.45;;;28.90;98.70;;;;;;4176304;28;20428;-64
2022/09/16 05:46:42;;;;;;;1.92;0.70;;;28.40;98.60;;;;;;4177626;28;20076;-64
2022/09/16 05:48:43;;;;;;;2.63;1.00;;;28.40;98.80;;;;;;4160072;28;20119;-66
2022/09/16 05:50:55;;;;;;;4.07;0.70;;;28.50;98.50;;;;;;4161521;28;20464;-64
2022/09/16 05:52:56;;;;;;;3.05;0.90;;;28.60;97.80;;;;;;4156606;28;20115;-64
2022/09/16 05:54:58;;;;;;;1.33;0.40;;;28.70;98.00;;;;;;4146114;28;20041;-64
2022/09/16 05:56:59;;;;;;;1.20;0.60;;;28.80;97.80;;;;;;4150480;28;20082;-65
2022/09/16 05:59:00;;;;;;;1.95;0.45;;;28.50;97.60;;;;;;4154258;28;20092;-65
2022/09/16 06:01:04;;;;;;;2.00;0.80;;;28.10;97.50;;;;;;4151850;28;20091;-64
2022/09/16 06:03:06;;;;;;;0.73;0.60;;;28.00;97.50;;;;;;4144679;28;20497;-63
2022/09/16 06:05:08;;;;;;;2.45;0.70;;;28.10;97.30;;;;;;4147945;28;20747;-66
2022/09/16 06:07:09;;;;;;;1.80;0.57;;;28.30;97.00;;;;;;4146777;28;20448;-62
2022/09/16 06:09:13;;;;;;;3.83;0.70;;;27.80;96.80;;;;;;4154137;28;20037;-62
2022/09/16 06:11:14;;;;;;;3.05;0.65;;;27.20;97.10;;;;;;4148493;28;20099;-66
2022/09/16 06:13:18;;;;;;;3.03;1.17;;;26.90;97.20;;;;;;4148969;28;20412;-64
2022/09/16 06:15:19;;;;;;;2.13;0.30;;;26.50;97.60;;;;;;4146350;28;20050;-63
2022/09/16 06:17:20;;;;;;;1.48;0.65;;;26.20;97.80;;;;;;4145294;28;20453;-64
2022/09/16 06:19:21;;;;;;;7.88;1.40;;;26.40;97.90;;;;;;4145444;28;20034;-64
2022/09/16 06:21:23;;;;;;;4.95;1.10;;;26.70;97.60;;;;;;4151998;28;20042;-64
2022/09/16 06:23:24;;;;;;;1.33;0.60;;;26.70;97.40;;;;;;4155511;28;20393;-64
2022/09/16 06:25:26;;;;;;;3.88;0.68;;;26.50;97.30;;;;;;4160450;28;20017;-65
2022/09/16 06:27:27;;;;;;;1.65;1.20;;;26.20;97.50;;;;;;4156957;28;20104;-64
2022/09/16 06:29:28;;;;;;;1.15;0.50;;;26.20;97.70;;;;;;4151946;28;20083;-64
2022/09/16 06:31:29;;;;;;;1.50;0.65;;;26.60;97.50;;;;;;4162598;28;20029;-65
2022/09/16 06:33:30;;;;;;;0.70;0.40;;;26.20;97.50;;;;;;4159092;28;20042;-65
2022/09/16 06:35:33;;;;;;;7.05;0.50;;;25.70;97.80;;;;;;4148462;28;20076;-64
2022/09/16 06:37:34;;;;;;;4.80;0.50;;;25.20;98.30;;;;;;4149825;28;20033;-65
2022/09/16 06:39:35;;;;;;;1.15;0.47;;;24.80;98.70;;;;;;4163204;28;20046;-63
2022/09/16 06:41:36;;;;;;;3.55;2.10;;;25.00;98.70;;;;;;4163481;28;20103;-64
2022/09/16 06:43:38;;;;;;;1.75;0.80;;;25.30;98.50;;;;;;4163504;28;20386;-64
2022/09/16 06:45:39;;;;;;;2.50;0.50;;;25.20;98.40;;;;;;4162706;28;20551;-63
2022/09/16 06:47:40;;;;;;;1.60;0.80;;;25.30;98.40;;;;;;4164613;28;20079;-63
2022/09/16 06:49:41;;;;;;;1.13;0.88;;;25.20;98.50;;;;;;4162837;28;20080;-63
2022/09/16 06:51:42;;;;;;;0.55;0.55;;;25.40;98.50;;;;;;4163957;28;20519;-64
2022/09/16 06:53:45;;;;;;;3.38;1.38;;;25.60;98.40;;;;;;4162738;28;20087;-64
2022/09/16 06:55:46;;;;;;;2.05;0.60;;;25.70;98.20;;;;;;4163867;28;20080;-64
2022/09/16 06:57:47;;;;;;;2.92;0.50;;;25.50;98.20;;;;;;4162702;28;20485;-63
2022/09/16 06:59:49;;;;;;;1.35;0.45;;;25.40;98.20;;;;;;4163569;28;20045;-64
2022/09/16 07:01:51;;;;;;;1.75;0.65;;;25.70;98.10;;;;;;4162815;28;20095;-63
2022/09/16 07:03:54;;;;;;;4.28;0.90;;;25.80;98.00;;;;;;4163970;28;20112;-64
2022/09/16 07:05:57;;;;;;;3.75;0.57;;;25.80;98.00;;;;;;4162864;28;20084;-63
2022/09/16 07:07:58;;;;;;;1.00;0.45;;;25.90;97.90;;;;;;4163628;28;20455;-64
2022/09/16 07:09:59;;;;;;;1.88;0.50;;;25.90;97.90;;;;;;4162814;28;20025;-64
2022/09/16 07:12:01;;;;;;;1.08;0.45;;;26.00;97.90;;;;;;4163230;28;20507;-64
2022/09/16 07:14:02;;;;;;;1.15;0.55;;;26.30;97.60;;;;;;4161866;28;20080;-63
2022/09/16 07:16:05;;;;;;;4.72;0.50;;;26.40;97.40;;;;;;4162839;28;20029;-64
2022/09/16 07:18:07;;;;;;;1.40;0.40;;;26.90;97.30;;;;;;4163907;28;20029;-63
2022/09/16 07:20:08;;;;;;;0.70;0.40;;;27.10;96.90;;;;;;4162451;28;20052;-63
2022/09/16 07:22:10;;;;;;;0.65;0.30;;;26.90;96.80;;;;;;4163446;28;20029;-63
2022/09/16 07:24:12;;;;;;;1.65;0.30;;;27.00;96.90;;;;;;4162263;28;20034;-62
2022/09/16 07:26:19;;;;;;;4.03;0.35;;;27.30;96.80;;;;;;4163700;28;20496;-63
2022/09/16 07:28:21;;;;;;;1.75;0.80;;;27.60;96.10;;;;;;4162267;28;20029;-64
2022/09/16 07:30:22;;;;;;;0.30;0.20;;;27.50;96.10;;;;;;4163150;28;20087;-63
2022/09/16 07:32:23;;;;;;;0.90;0.40;;;27.80;96.00;;;;;;4162031;28;20374;-65
2022/09/16 07:34:24;;;;;;;0.70;0.60;;;28.20;95.70;;;;;;4163375;28;20033;-63
2022/09/16 07:36:29;;;;;;;2.72;0.40;;;28.20;95.40;;;;;;4161595;28;20084;-63
2022/09/16 07:38:31;;;;;;;1.05;0.50;;;28.30;95.20;;;;;;4163201;28;20021;-64
2022/09/16 07:40:33;;;;;;;1.25;0.50;;;28.10;95.00;;;;;;4161940;28;20282;-63
2022/09/16 07:42:34;;;;;;;0.88;0.47;;;27.90;94.80;;;;;;4162754;28;20037;-65
2022/09/16 07:44:35;;;;;;;1.20;0.40;;;28.00;94.90;;;;;;4162212;28;20030;-64
2022/09/16 07:46:36;;;;;;;2.45;0.63;;;28.10;95.00;;;;;;4162614;28;20425;-64
2022/09/16 07:48:38;;;;;;;1.35;0.57;;;28.10;95.00;;;;;;4163027;28;20452;-64
2022/09/16 07:50:39;;;;;;;0.75;0.20;;;28.00;94.80;;;;;;4162191;28;20033;-64
2022/09/16 07:52:41;;;;;;;1.17;0.38;;;27.70;94.80;;;;;;4162763;28;20489;-64
2022/09/16 07:54:42;;;;;;;1.17;0.52;;;27.40;94.90;;;;;;4161719;28;20033;-63
2022/09/16 07:56:44;;;;;;;0.63;0.30;;;27.00;95.00;;;;;;4163091;28;20083;-64
2022/09/16 07:58:46;;;;;;;1.33;0.43;;;26.80;95.20;;;;;;4162012;28;20128;-64
2022/09/16 08:00:48;;;;;;;2.28;0.57;;;26.60;95.20;;;;;;4162472;28;20452;-65
2022/09/16 08:02:49;;;;;;;0.70;0.43;;;26.20;95.50;;;;;;4161631;28;20551;-65
2022/09/16 08:04:50;;;;;;;0.43;0.40;;;25.70;96.00;;;;;;4162852;28;20087;-65
2022/09/16 08:06:51;;;;;;;0.70;0.40;;;25.50;96.50;;;;;;4161444;28;20033;-63
2022/09/16 08:08:55;;;;;;;1.33;0.40;;;25.30;96.40;;;;;;4162749;28;20508;-63
2022/09/16 08:10:57;;;;;;;2.15;0.95;;;25.20;96.40;;;;;;4161410;28;20038;-64
2022/09/16 08:12:58;;;;;;;0.30;0.28;;;25.30;96.30;;;;;;4162488;28;20537;-64
2022/09/16 08:14:59;;;;;;;0.40;0.30;;;25.30;96.40;;;;;;4161050;28;20043;-64
2022/09/16 08:17:02;;;;;;;6.18;4.53;;;25.30;96.50;;;;;;4162151;28;20042;-63
2022/09/16 08:19:03;;;;;;;6.03;1.90;;;25.30;96.60;;;;;;4162392;28;20083;-65
2022/09/16 08:21:10;;;;;;;1.20;0.75;;;25.20;96.60;;;;;;4161969;28;20395;-64
2022/09/16 08:23:13;;;;;;;3.25;0.50;;;24.90;96.70;;;;;;4161805;28;20061;-66
2022/09/16 08:25:14;;;;;;;4.13;0.50;;;24.80;96.70;;;;;;4161501;28;20041;-64
2022/09/16 08:27:15;;;;;;;2.90;0.30;;;24.70;96.80;;;;;;4160910;28;20096;-63
2022/09/16 08:29:17;;;;;;;1.48;0.40;;;24.60;97.00;;;;;;4161372;28;20475;-63
2022/09/16 08:31:18;;;;;;;1.13;0.50;;;24.90;96.70;;;;;;4162240;28;20037;-63
2022/09/16 08:33:23;;;;;;;0.55;0.38;;;25.10;96.10;;;;;;4160992;28;20083;-63
2022/09/16 08:35:25;;;;;;;0.50;0.30;;;25.40;95.70;;;;;;4162163;28;20047;-65
2022/09/16 08:37:26;;;;;;;2.10;0.50;;;25.60;95.10;;;;;;4161364;28;20021;-64
2022/09/16 08:39:27;;;;;;;2.17;0.17;;;25.80;94.60;;;;;;4162447;28;20075;-64
2022/09/16 08:41:46;;;;;;;2.20;0.40;;;25.70;94.30;;;;;;4161261;28;20030;-64
2022/09/16 08:44:12;;;;;;;1.52;0.30;;;25.70;93.60;;;;;;4162391;28;20037;-64
2022/09/16 08:46:33;;;;;;;0.73;0.30;;;25.60;94.00;;;;;;4160753;28;20029;-63
2022/09/16 08:48:55;;;;;;;0.77;0.45;;;25.80;92.80;;;;;;4162031;28;20045;-64
2022/09/16 08:50:59;;;;;;;0.65;0.25;;;25.80;93.30;;;;;;4160973;28;20080;-64
2022/09/16 08:53:06;;;;;;;1.42;0.30;;;25.90;93.40;;;;;;4161727;28;20037;-63
2022/09/16 08:55:30;;;;;;;1.35;0.40;;;25.80;93.20;;;;;;4160789;28;20370;-62
2022/09/16 08:57:37;;;;;;;0.30;0.20;;;26.10;93.10;;;;;;4159974;28;20567;-64
2022/09/16 08:59:45;;;;;;;1.77;0.30;;;26.20;92.80;;;;;;4160663;28;20037;-64
2022/09/16 09:01:56;;;;;;;0.82;0.20;;;26.00;92.60;;;;;;4161859;28;20448;-66
2022/09/16 09:03:58;;;;;;;0.15;0.10;;;26.00;92.20;;;;;;4160960;28;20049;-66
2022/09/16 09:06:03;;;;;;;2.30;0.40;;;25.70;92.60;;;;;;4162024;28;20029;-65
2022/09/16 09:08:35;;;;;;;3.95;0.30;;;25.50;92.70;;;;;;4160793;28;20041;-64
2022/09/16 09:10:36;;;;;;;0.47;0.20;;;25.50;92.60;;;;;;4161398;28;20025;-64
2022/09/16 09:12:46;;;;;;;1.85;0.32;;;25.60;93.10;;;;;;4160815;28;20075;-65
2022/09/16 09:15:12;;;;;;;1.63;0.25;;;25.60;93.10;;;;;;4161486;28;20025;-64
2022/09/16 09:17:38;;;;;;;0.22;0.20;;;25.60;92.20;;;;;;4161006;28;20103;-66
2022/09/16 09:19:48;;;;;;;0.10;0.10;;;25.30;91.70;;;;;;4161255;28;20034;-64
2022/09/16 09:21:56;;;;;;;0.45;0.30;;;25.20;92.70;;;;;;4161086;28;20029;-65
2022/09/16 09:24:24;;;;;;;1.23;0.30;;;25.20;92.40;;;;;;4160767;28;20037;-64
2022/09/16 09:26:37;;;;;;;1.23;0.30;;;25.10;92.00;;;;;;4161347;28;20033;-63
2022/09/16 09:29:03;;;;;;;0.40;0.40;;;24.90;92.50;;;;;;4160325;28;20051;-63
2022/09/16 09:31:29;;;;;;;0.10;0.10;;;24.80;92.70;;;;;;4161373;28;20540;-63
2022/09/16 09:33:36;;;;;;;0.80;0.22;;;24.80;92.70;;;;;;4159363;28;20392;-63
2022/09/16 09:35:40;;;;;;;0.68;0.40;;;24.80;92.70;;;;;;4161024;28;20083;-63
2022/09/16 09:37:54;;;;;;;3.33;0.50;;;24.90;92.80;;;;;;4160360;28;20021;-63
2022/09/16 09:40:13;;;;;;;0.95;0.75;;;25.10;92.80;;;;;;4161443;28;20037;-64
2022/09/16 09:42:26;;;;;;;2.85;0.85;;;25.20;92.50;;;;;;4160287;28;20056;-64
2022/09/16 09:44:56;;;;;;;4.45;0.80;;;25.00;93.20;;;;;;4160990;28;20049;-63
2022/09/16 09:47:02;;;;;;;1.03;0.30;;;24.90;93.80;;;;;;4160266;28;20968;-64
2022/09/16 09:49:12;;;;;;;2.15;0.60;;;24.80;93.80;;;;;;4161775;28;20033;-64
2022/09/16 09:51:39;;;;;;;16.20;2.85;;;24.50;94.20;;;;;;4160026;28;20535;-64
2022/09/16 09:53:51;;;;;;;3.25;1.05;;;24.10;94.30;;;;;;4158585;28;20465;-65
2022/09/16 09:56:19;;;;;;;12.75;1.52;;;23.90;94.70;;;;;;4160168;28;20049;-64
2022/09/16 09:59:01;;;;;;;7.05;1.35;;;23.90;95.00;;;;;;4150583;28;20037;-63
2022/09/16 10:01:03;;;;;;;3.63;0.60;;;23.80;95.00;;;;;;4165889;28;20139;-63
2022/09/16 10:03:16;;;;;;;2.05;0.30;;;23.80;95.00;;;;;;4165503;28;20084;-63
2022/09/16 10:05:23;;;;;;;3.28;0.80;;;23.80;95.10;;;;;;4166581;28;20167;-64
2022/09/16 10:07:25;;;;;;;9.10;1.48;;;23.80;95.20;;;;;;4165724;28;20029;-63
2022/09/16 10:09:27;;;;;;;7.55;1.35;;;23.80;95.30;;;;;;4166295;28;20030;-64
2022/09/16 10:11:30;;;;;;;13.90;1.50;;;23.70;95.40;;;;;;4165521;28;20034;-63
2022/09/16 10:13:31;;;;;;;8.68;0.70;;;23.60;95.70;;;;;;4165337;28;20476;-65
2022/09/16 10:15:33;;;;;;;3.38;0.80;;;23.50;95.90;;;;;;4166025;28;20404;-63
2022/09/16 10:17:34;;;;;;;11.80;2.00;;;23.30;95.90;;;;;;4165375;28;20026;-63
2022/09/16 10:19:49;;;;;;;1.13;0.73;;;23.20;96.20;;;;;;4166560;28;20037;-63
2022/09/16 10:22:06;;;;;;;2.75;0.55;;;23.00;96.50;;;;;;4165237;28;20041;-67
2022/09/16 10:24:36;;;;;;;1.63;0.50;;;23.10;96.80;;;;;;4165985;28;20286;-65
2022/09/16 10:26:39;;;;;;;1.02;0.60;;;23.10;96.70;;;;;;4166062;28;20116;-63
2022/09/16 10:28:41;;;;;;;2.42;0.50;;;23.20;96.60;;;;;;4165884;28;20091;-63
2022/09/16 10:30:51;;;;;;;10.07;1.30;;;23.30;96.50;;;;;;4165351;28;20041;-63
2022/09/16 10:33:09;;;;;;;13.05;1.70;;;23.30;96.50;;;;;;4166090;28;20098;-63
2022/09/16 10:35:19;;;;;;;11.60;1.40;;;23.20;96.70;;;;;;4165423;28;20494;-64
2022/09/16 10:37:21;;;;;;;;;;;23.30;96.70;;;;;;4166295;28;20034;-62
2022/09/16 10:39:24;;;;;;;12.48;2.50;;;23.10;97.00;;;;;;4165288;28;19962;-63
2022/09/16 10:41:28;;;;;;;6.45;1.20;;;23.10;97.00;;;;;;4165594;28;20041;-64
2022/09/16 10:43:30;;;;;;;9.05;2.58;;;23.10;97.20;;;;;;4165081;28;20042;-63
2022/09/16 10:45:43;;;;;;;16.95;2.58;;;22.90;97.30;;;;;;4166160;28;20433;-63
2022/09/16 10:47:50;;;;;;;1.73;0.70;;;23.00;97.60;;;;;;4165539;28;20029;-63
2022/09/16 10:49:56;;;;;;;4.57;0.77;;;23.00;97.40;;;;;;4166310;28;20128;-63
2022/09/16 10:52:08;;;;;;;0.60;0.55;;;23.00;97.50;;;;;;4165127;28;20672;-63
2022/09/16 10:54:27;;;;;;;2.22;0.98;;;23.00;97.40;;;;;;4166097;28;20563;-64
2022/09/16 10:56:44;;;;;;;1.65;0.88;;;22.90;97.60;;;;;;4164094;28;20084;-63
2022/09/16 10:58:45;;;;;;;1.35;0.80;;;22.90;97.70;;;;;;4165769;28;20025;-65